Time;durP1;ratioP1;P1;durP2;ratioP2;P2;SDS_P1;SDS_P2;PMS_P1;PMS_P2;Temp;Humidity;BMP_temperature;BMP_pressure;BME280_temperature;BME280_humidity;BME280_pressure;Samples;Min_cycle;Max_cycle;Signal;HPM_P1;HPM_P2
2021/11/26 00:02:21;;;;;;;;;;;4.80;1.00;;;;;;5012773;28;19914;-80
2021/11/26 00:04:47;;;;;;;;;;;4.80;1.00;;;;;;5003065;28;19921;-81
2021/11/26 00:07:13;;;;;;;;;;;4.80;1.00;;;;;;5015838;28;19929;-80
2021/11/26 00:09:38;;;;;;;;;;;4.80;1.00;;;;;;5002057;28;19914;-79
2021/11/26 00:12:04;;;;;;;;;;;4.80;1.00;;;;;;5014493;28;20296;-79
2021/11/26 00:14:32;;;;;;;;;;;4.80;1.00;;;;;;5017200;28;19917;-79
2021/11/26 00:16:59;;;;;;;;;;;4.80;1.00;;;;;;5008200;28;19917;-80
2021/11/26 00:19:25;;;;;;;;;;;4.80;1.00;;;;;;4998992;28;19932;-79
2021/11/26 00:21:51;;;;;;;;;;;4.80;1.00;;;;;;5015580;28;19995;-79
2021/11/26 00:24:17;;;;;;;;;;;4.80;1.00;;;;;;5016309;28;19913;-80
2021/11/26 00:26:43;;;;;;;;;;;4.90;1.00;;;;;;5010891;28;20396;-80
2021/11/26 00:29:09;;;;;;;;;;;4.90;1.00;;;;;;5013047;28;19976;-78
2021/11/26 00:31:34;;;;;;;;;;;4.90;1.00;;;;;;5011934;28;19953;-79
2021/11/26 00:34:00;;;;;;;;;;;4.90;1.00;;;;;;5010663;28;19985;-81
2021/11/26 00:36:26;;;;;;;;;;;4.90;1.00;;;;;;5009240;28;19909;-80
2021/11/26 00:38:51;;;;;;;;;;;4.90;1.00;;;;;;5022034;28;19917;-79
2021/11/26 00:41:17;;;;;;;;;;;4.90;1.00;;;;;;5007593;28;20001;-80
2021/11/26 00:43:44;;;;;;;;;;;4.90;1.00;;;;;;5009326;28;19936;-80
2021/11/26 00:46:10;;;;;;;;;;;4.90;1.00;;;;;;5021596;28;19956;-81
2021/11/26 00:48:35;;;;;;;;;;;4.90;1.00;;;;;;5014651;28;19920;-81
2021/11/26 00:51:01;;;;;;;;;;;4.90;1.00;;;;;;5018358;28;19910;-80
2021/11/26 00:53:26;;;;;;;;;;;4.90;1.00;;;;;;5021756;28;19941;-80
2021/11/26 00:55:52;;;;;;;;;;;4.90;1.00;;;;;;5013812;28;19913;-80
2021/11/26 00:58:17;;;;;;;;;;;4.90;1.00;;;;;;5023153;28;20396;-78
2021/11/26 01:00:43;;;;;;;;;;;4.80;1.00;;;;;;5025354;28;19914;-80
2021/11/26 01:03:09;;;;;;;;;;;4.80;1.00;;;;;;5010606;28;19917;-81
2021/11/26 01:05:34;;;;;;;;;;;4.70;1.00;;;;;;5016142;28;19917;-81
2021/11/26 01:08:00;;;;;;;;;;;4.70;1.00;;;;;;5014180;28;19921;-79
2021/11/26 01:10:25;;;;;;;;;;;4.60;1.00;;;;;;5017090;28;19917;-80
2021/11/26 01:12:51;;;;;;;;;;;4.60;1.00;;;;;;5009936;28;19914;-80
2021/11/26 01:15:25;;;;;;;;;;;4.60;1.00;;;;;;5018274;28;19913;-81
2021/11/26 01:17:50;;;;;;;;;;;4.60;1.00;;;;;;5011931;28;20000;-79
2021/11/26 01:20:17;;;;;;;;;;;4.60;1.00;;;;;;5017444;28;19944;-80
2021/11/26 01:22:43;;;;;;;;;;;4.60;1.00;;;;;;5013874;28;19914;-81
2021/11/26 01:25:09;;;;;;;;;;;4.60;1.00;;;;;;5008945;28;19921;-80
2021/11/26 01:27:35;;;;;;;;;;;4.60;1.00;;;;;;5026944;28;20215;-79
2021/11/26 01:30:08;;;;;;;;;;;4.50;1.00;;;;;;5021492;28;19910;-79
2021/11/26 01:32:34;;;;;;;;;;;4.50;1.00;;;;;;5006936;28;19918;-80
2021/11/26 01:34:59;;;;;;;;;;;4.50;1.00;;;;;;5019513;28;20016;-80
2021/11/26 01:37:25;;;;;;;;;;;4.50;1.00;;;;;;5014728;28;19933;-80
2021/11/26 01:39:50;;;;;;;;;;;4.50;1.00;;;;;;5018465;28;19913;-80
2021/11/26 01:42:16;;;;;;;;;;;4.50;1.00;;;;;;5016849;28;19953;-79
2021/11/26 01:44:41;;;;;;;;;;;4.50;1.00;;;;;;5019033;28;19996;-80
2021/11/26 01:47:11;;;;;;;;;;;4.50;1.00;;;;;;5009421;28;19926;-81
2021/11/26 01:49:36;;;;;;;;;;;4.50;1.00;;;;;;5016020;28;19952;-79
2021/11/26 01:52:02;;;;;;;;;;;4.40;1.00;;;;;;5020613;28;19921;-81
2021/11/26 01:54:27;;;;;;;;;;;4.40;1.00;;;;;;5020727;28;20063;-81
2021/11/26 01:56:53;;;;;;;;;;;4.40;1.00;;;;;;5017733;28;20345;-79
2021/11/26 01:59:18;;;;;;;;;;;4.30;1.00;;;;;;5009067;28;19909;-80
2021/11/26 02:01:44;;;;;;;;;;;4.30;1.00;;;;;;5023212;28;19972;-80
2021/11/26 02:04:09;;;;;;;;;;;4.30;1.00;;;;;;5019363;28;19925;-79
2021/11/26 02:06:35;;;;;;;;;;;4.30;1.00;;;;;;5029047;28;19913;-81
2021/11/26 02:09:00;;;;;;;;;;;4.30;1.00;;;;;;5011268;28;19910;-81
2021/11/26 02:11:26;;;;;;;;;;;4.30;1.00;;;;;;5018748;28;20444;-79
2021/11/26 02:13:51;;;;;;;;;;;4.30;1.00;;;;;;5019210;28;19963;-79
2021/11/26 02:16:17;;;;;;;;;;;4.40;1.00;;;;;;5027523;28;19913;-80
2021/11/26 02:18:45;;;;;;;;;;;4.40;1.00;;;;;;5023047;28;19924;-80
2021/11/26 02:21:11;;;;;;;;;;;4.40;1.00;;;;;;5011623;28;19968;-80
2021/11/26 02:23:36;;;;;;;;;;;4.50;1.00;;;;;;5011209;28;19917;-78
2021/11/26 02:26:02;;;;;;;;;;;4.50;1.00;;;;;;5014384;28;19998;-80
2021/11/26 02:28:27;;;;;;;;;;;4.50;1.00;;;;;;5015613;28;20013;-81
2021/11/26 02:30:53;;;;;;;;;;;4.50;1.00;;;;;;5005395;28;19963;-80
2021/11/26 02:33:19;;;;;;;;;;;4.50;1.00;;;;;;5019284;28;20285;-80
2021/11/26 02:35:47;;;;;;;;;;;4.60;1.00;;;;;;5024456;28;19921;-81
2021/11/26 02:38:13;;;;;;;;;;;4.60;1.00;;;;;;5016663;28;19921;-81
2021/11/26 02:40:40;;;;;;;;;;;4.60;1.00;;;;;;5009008;28;19916;-79
2021/11/26 02:43:06;;;;;;;;;;;4.60;1.00;;;;;;5009154;28;19913;-80
2021/11/26 02:45:31;;;;;;;;;;;4.60;1.00;;;;;;5018661;28;19961;-80
2021/11/26 02:47:58;;;;;;;;;;;4.60;1.00;;;;;;5011710;28;19924;-79
2021/11/26 02:50:25;;;;;;;;;;;4.60;1.00;;;;;;5019113;28;20055;-80
2021/11/26 02:52:50;;;;;;;;;;;4.60;1.00;;;;;;5018595;28;19918;-79
2021/11/26 02:55:18;;;;;;;;;;;4.60;1.00;;;;;;5018073;28;20013;-81
2021/11/26 02:57:44;;;;;;;;;;;4.60;1.00;;;;;;5012012;28;19953;-80
2021/11/26 03:00:11;;;;;;;;;;;4.60;1.00;;;;;;5019027;28;19921;-79
2021/11/26 03:02:36;;;;;;;;;;;4.60;1.00;;;;;;5013407;28;19996;-79
2021/11/26 03:05:03;;;;;;;;;;;4.60;1.00;;;;;;5012933;28;19995;-82
2021/11/26 03:07:28;;;;;;;;;;;4.60;1.00;;;;;;5009372;28;19917;-80
2021/11/26 03:09:53;;;;;;;;;;;4.60;1.00;;;;;;5016296;28;19917;-80
2021/11/26 03:12:19;;;;;;;;;;;4.60;1.00;;;;;;5016831;28;19963;-80
2021/11/26 03:14:44;;;;;;;;;;;4.60;1.00;;;;;;5012028;28;20387;-80
2021/11/26 03:17:10;;;;;;;;;;;4.70;1.00;;;;;;5011422;28;19967;-80
2021/11/26 03:19:35;;;;;;;;;;;4.70;1.00;;;;;;5013939;28;19916;-80
2021/11/26 03:22:01;;;;;;;;;;;4.70;1.00;;;;;;5017003;28;19920;-81
2021/11/26 03:24:26;;;;;;;;;;;4.70;1.00;;;;;;5013517;28;20121;-80
2021/11/26 03:26:52;;;;;;;;;;;4.70;1.00;;;;;;5023000;28;20382;-81
2021/11/26 03:29:17;;;;;;;;;;;4.70;1.00;;;;;;5014717;28;20048;-81
2021/11/26 03:31:43;;;;;;;;;;;4.70;1.00;;;;;;5004831;28;19921;-79
2021/11/26 03:34:08;;;;;;;;;;;4.70;1.00;;;;;;5007056;28;19918;-79
2021/11/26 03:36:34;;;;;;;;;;;4.80;1.00;;;;;;5015122;28;20374;-79
2021/11/26 03:39:00;;;;;;;;;;;4.80;1.00;;;;;;5015621;28;20349;-79
2021/11/26 03:41:25;;;;;;;;;;;4.80;1.00;;;;;;5012223;28;20691;-81
2021/11/26 03:43:51;;;;;;;;;;;4.80;1.00;;;;;;5015805;28;19920;-80
2021/11/26 03:46:16;;;;;;;;;;;4.80;1.00;;;;;;5013049;28;20395;-81
2021/11/26 03:48:43;;;;;;;;;;;4.80;1.00;;;;;;5023072;28;20633;-79
2021/11/26 03:51:09;;;;;;;;;;;4.80;1.00;;;;;;5004270;28;19948;-78
2021/11/26 03:53:34;;;;;;;;;;;4.80;1.00;;;;;;5008683;28;20357;-79
2021/11/26 03:56:00;;;;;;;;;;;4.80;1.00;;;;;;5017468;28;20340;-80
2021/11/26 03:58:25;;;;;;;;;;;4.80;1.00;;;;;;5016819;28;19920;-80
2021/11/26 04:00:51;;;;;;;;;;;4.80;1.00;;;;;;5015595;28;19917;-79
2021/11/26 04:03:16;;;;;;;;;;;4.80;1.00;;;;;;5009274;28;19956;-79
2021/11/26 04:05:42;;;;;;;;;;;4.80;1.00;;;;;;5015945;28;19917;-81
2021/11/26 04:08:07;;;;;;;;;;;4.80;1.00;;;;;;5023488;28;19924;-80
2021/11/26 04:10:33;;;;;;;;;;;4.90;1.00;;;;;;5017921;28;19918;-79
2021/11/26 04:12:58;;;;;;;;;;;4.90;1.00;;;;;;5018535;28;19971;-80
2021/11/26 04:15:24;;;;;;;;;;;4.90;1.00;;;;;;5018897;28;19917;-79
2021/11/26 04:17:50;;;;;;;;;;;4.80;1.00;;;;;;5008835;28;19964;-80
2021/11/26 04:20:17;;;;;;;;;;;4.80;1.00;;;;;;5017538;28;19941;-79
2021/11/26 04:22:43;;;;;;;;;;;4.80;1.00;;;;;;5022108;28;19909;-81
2021/11/26 04:25:11;;;;;;;;;;;4.80;1.00;;;;;;5013069;28;19920;-79
2021/11/26 04:27:37;;;;;;;;;;;4.80;1.00;;;;;;5017994;28;20476;-80
2021/11/26 04:30:04;;;;;;;;;;;4.80;1.00;;;;;;5001334;28;19910;-79
2021/11/26 04:32:30;;;;;;;;;;;4.90;1.00;;;;;;5011013;28;20138;-81
2021/11/26 04:34:56;;;;;;;;;;;4.90;1.00;;;;;;5053232;22;19931;-85
2021/11/26 04:37:21;;;;;;;;;;;4.90;1.00;;;;;;5055673;28;19912;-85
2021/11/26 04:39:47;;;;;;;;;;;4.90;1.00;;;;;;5064551;28;19932;-85
2021/11/26 04:42:12;;;;;;;;;;;4.90;1.00;;;;;;5036697;28;19920;-85
2021/11/26 04:44:38;;;;;;;;;;;4.90;1.00;;;;;;5043527;28;19917;-86
2021/11/26 04:47:04;;;;;;;;;;;4.90;1.00;;;;;;5041255;28;19912;-85
2021/11/26 04:49:29;;;;;;;;;;;4.90;1.00;;;;;;5041061;28;19909;-85
2021/11/26 04:51:55;;;;;;;;;;;4.90;1.00;;;;;;5039452;28;19917;-85
2021/11/26 04:54:20;;;;;;;;;;;4.90;1.00;;;;;;5051621;28;19917;-85
2021/11/26 04:56:46;;;;;;;;;;;4.90;1.00;;;;;;5046033;28;19968;-85
2021/11/26 04:59:11;;;;;;;;;;;4.90;1.00;;;;;;5040126;28;19909;-85
2021/11/26 05:01:36;;;;;;;;;;;4.90;1.00;;;;;;5033304;28;19912;-85
2021/11/26 05:04:02;;;;;;;;;;;4.90;1.00;;;;;;5024873;28;19909;-85
2021/11/26 05:06:28;;;;;;;;;;;4.90;1.00;;;;;;5033917;28;19920;-85
2021/11/26 05:08:54;;;;;;;;;;;4.90;1.00;;;;;;5044430;28;19955;-85
2021/11/26 05:11:19;;;;;;;;;;;4.90;1.00;;;;;;5037741;28;19965;-85
2021/11/26 05:13:45;;;;;;;;;;;4.90;1.00;;;;;;5026429;28;19909;-86
2021/11/26 05:16:13;;;;;;;;;;;4.90;1.00;;;;;;5039631;28;19919;-85
2021/11/26 05:18:39;;;;;;;;;;;4.90;1.00;;;;;;5013700;28;19952;-85
2021/11/26 05:21:05;;;;;;;;;;;4.90;1.00;;;;;;5015864;28;19914;-85
2021/11/26 05:23:30;;;;;;;;;;;4.90;1.00;;;;;;5040675;28;19987;-85
2021/11/26 05:25:56;;;;;;;;;;;4.90;1.00;;;;;;5043855;28;19920;-85
2021/11/26 05:28:22;;;;;;;;;;;4.90;1.00;;;;;;5040692;28;19914;-86
2021/11/26 05:30:47;;;;;;;;;;;4.90;1.00;;;;;;5044331;28;19909;-85
2021/11/26 05:33:13;;;;;;;;;;;4.90;1.00;;;;;;5044585;28;20387;-85
2021/11/26 05:35:38;;;;;;;;;;;4.90;1.00;;;;;;5022119;28;19917;-85
2021/11/26 05:38:04;;;;;;;;;;;4.90;1.00;;;;;;5055302;28;19914;-85
2021/11/26 05:40:30;;;;;;;;;;;4.90;1.00;;;;;;5036767;28;19917;-86
2021/11/26 05:42:55;;;;;;;;;;;4.90;1.00;;;;;;5025732;28;19928;-85
2021/11/26 05:45:21;;;;;;;;;;;4.90;1.00;;;;;;5018031;28;19917;-86
2021/11/26 05:47:47;;;;;;;;;;;4.90;1.00;;;;;;5035440;28;19909;-85
2021/11/26 05:50:13;;;;;;;;;;;4.90;1.00;;;;;;5035921;28;19930;-86
2021/11/26 05:52:39;;;;;;;;;;;4.90;1.00;;;;;;5014756;28;19920;-85
2021/11/26 05:55:07;;;;;;;;;;;4.90;1.00;;;;;;5036034;28;20367;-85
2021/11/26 05:57:32;;;;;;;;;;;4.90;1.00;;;;;;5033679;28;19913;-85
2021/11/26 05:59:58;;;;;;;;;;;4.90;1.00;;;;;;5018148;28;19909;-85
2021/11/26 06:02:23;;;;;;;;;;;4.90;1.00;;;;;;5035858;28;20344;-85
2021/11/26 06:04:49;;;;;;;;;;;4.90;1.00;;;;;;5035506;28;19917;-85
2021/11/26 06:07:14;;;;;;;;;;;4.90;1.00;;;;;;5038351;28;19955;-85
2021/11/26 06:09:40;;;;;;;;;;;4.90;1.00;;;;;;5033290;28;19923;-85
2021/11/26 06:12:07;;;;;;;;;;;5.00;1.00;;;;;;5017246;28;19917;-85
2021/11/26 06:14:33;;;;;;;;;;;5.00;1.00;;;;;;5033756;28;19928;-85
2021/11/26 06:16:58;;;;;;;;;;;4.90;1.00;;;;;;5034638;28;19909;-84
2021/11/26 06:19:24;;;;;;;;;;;5.00;1.00;;;;;;5034725;28;19917;-85
2021/11/26 06:21:49;;;;;;;;;;;4.90;1.00;;;;;;5035812;28;19920;-85
2021/11/26 06:24:14;;;;;;;;;;;4.90;1.00;;;;;;5034765;28;20324;-85
2021/11/26 06:26:40;;;;;;;;;;;5.00;1.00;;;;;;5037090;28;19928;-85
2021/11/26 06:29:05;;;;;;;;;;;4.90;1.00;;;;;;5042365;28;20349;-85
2021/11/26 06:31:31;;;;;;;;;;;5.00;1.00;;;;;;5037495;28;19920;-86
2021/11/26 06:33:57;;;;;;;;;;;5.00;1.00;;;;;;5049805;28;19916;-85
2021/11/26 06:36:22;;;;;;;;;;;5.00;1.00;;;;;;5035073;28;19920;-85
2021/11/26 06:38:48;;;;;;;;;;;5.00;1.00;;;;;;5036850;28;19922;-87
2021/11/26 06:41:13;;;;;;;;;;;5.00;1.00;;;;;;5034384;28;20431;-85
2021/11/26 06:43:39;;;;;;;;;;;5.10;1.00;;;;;;5019182;28;19913;-85
2021/11/26 06:46:04;;;;;;;;;;;5.20;1.00;;;;;;5031911;28;19933;-86
2021/11/26 06:48:30;;;;;;;;;;;5.30;1.00;;;;;;5027145;28;19914;-85
2021/11/26 06:50:55;;;;;;;;;;;5.30;1.00;;;;;;5017260;28;19910;-85
2021/11/26 06:53:21;;;;;;;;;;;5.30;1.00;;;;;;5033888;28;19968;-85
2021/11/26 06:55:47;;;;;;;;;;;5.40;1.00;;;;;;5036419;28;20266;-85
2021/11/26 06:58:12;;;;;;;;;;;5.30;1.00;;;;;;5036601;28;19909;-85
2021/11/26 07:00:38;;;;;;;;;;;5.40;1.00;;;;;;5033082;28;20004;-85
2021/11/26 07:03:03;;;;;;;;;;;5.30;1.00;;;;;;5034747;28;19924;-86
2021/11/26 07:05:29;;;;;;;;;;;5.30;1.00;;;;;;5016391;28;19927;-86
2021/11/26 07:07:54;;;;;;;;;;;5.30;1.00;;;;;;5034253;28;19909;-86
2021/11/26 07:10:20;;;;;;;;;;;5.30;1.00;;;;;;5034214;28;20399;-87
2021/11/26 07:12:45;;;;;;;;;;;5.30;1.00;;;;;;5034492;28;19909;-86
2021/11/26 07:15:12;;;;;;;;;;;5.30;1.00;;;;;;5033712;28;19924;-86
2021/11/26 07:17:38;;;;;;;;;;;5.30;1.00;;;;;;5037699;28;19940;-86
2021/11/26 07:20:05;;;;;;;;;;;5.30;1.00;;;;;;5044315;28;19919;-86
2021/11/26 07:22:30;;;;;;;;;;;5.40;1.00;;;;;;5039627;28;19963;-86
2021/11/26 07:24:55;;;;;;;;;;;5.40;1.00;;;;;;5034762;28;19921;-85
2021/11/26 07:27:21;;;;;;;;;;;5.30;1.00;;;;;;5044529;28;19920;-84
2021/11/26 07:29:46;;;;;;;;;;;5.40;1.00;;;;;;5033841;28;20392;-83
2021/11/26 07:32:12;;;;;;;;;;;5.40;1.00;;;;;;5031747;28;19920;-81
2021/11/26 07:34:41;;;;;;;;;;;5.40;1.00;;;;;;5033251;28;20004;-83
2021/11/26 07:37:08;;;;;;;;;;;5.30;1.00;;;;;;5052449;28;19943;-82
2021/11/26 07:39:36;;;;;;;;;;;5.40;1.00;;;;;;5018778;28;19913;-82
2021/11/26 07:42:05;;;;;;;;;;;5.40;1.00;;;;;;5043593;28;20015;-80
2021/11/26 07:44:34;;;;;;;;;;;5.40;1.00;;;;;;5020483;28;19909;-82
2021/11/26 07:47:00;;;;;;;;;;;5.40;1.00;;;;;;5026904;28;19917;-80
2021/11/26 07:49:28;;;;;;;;;;;5.40;1.00;;;;;;5044546;28;19909;-82
2021/11/26 07:51:55;;;;;;;;;;;5.40;1.00;;;;;;5033842;28;19913;-82
2021/11/26 07:54:20;;;;;;;;;;;5.40;1.00;;;;;;5026563;28;19936;-83
2021/11/26 07:56:46;;;;;;;;;;;5.40;1.00;;;;;;5022947;28;19909;-82
2021/11/26 07:59:11;;;;;;;;;;;5.40;1.00;;;;;;5037628;28;19913;-82
2021/11/26 08:01:37;;;;;;;;;;;5.40;1.00;;;;;;5039641;28;19916;-82
2021/11/26 08:04:02;;;;;;;;;;;5.40;1.00;;;;;;5038143;28;19913;-83
2021/11/26 08:06:28;;;;;;;;;;;5.40;1.00;;;;;;5033788;28;19909;-82
2021/11/26 08:08:53;;;;;;;;;;;5.40;1.00;;;;;;5036667;28;19913;-82
2021/11/26 08:11:19;;;;;;;;;;;5.40;1.00;;;;;;5046887;28;20016;-83
2021/11/26 08:13:47;;;;;;;;;;;5.40;1.00;;;;;;5045245;28;19917;-83
2021/11/26 08:16:13;;;;;;;;;;;5.40;1.00;;;;;;5053283;28;19958;-82
2021/11/26 08:18:38;;;;;;;;;;;5.40;1.00;;;;;;5042608;28;19930;-84
2021/11/26 08:21:04;;;;;;;;;;;5.40;1.00;;;;;;5017384;28;19935;-82
2021/11/26 08:23:30;;;;;;;;;;;5.40;1.00;;;;;;5036371;28;19913;-82
2021/11/26 08:25:57;;;;;;;;;;;5.40;1.00;;;;;;5029905;28;19910;-83
2021/11/26 08:28:23;;;;;;;;;;;5.40;1.00;;;;;;5035158;28;20331;-82
2021/11/26 08:30:49;;;;;;;;;;;5.40;1.00;;;;;;5035030;28;19932;-83
2021/11/26 08:33:14;;;;;;;;;;;5.50;1.00;;;;;;5035273;28;19913;-82
2021/11/26 08:35:40;;;;;;;;;;;5.50;1.00;;;;;;5034135;28;20296;-81
2021/11/26 08:38:05;;;;;;;;;;;5.50;1.00;;;;;;5034347;28;20016;-81
2021/11/26 08:40:31;;;;;;;;;;;5.50;1.00;;;;;;5032918;28;19928;-81
2021/11/26 08:42:56;;;;;;;;;;;5.60;1.00;;;;;;5026305;28;19970;-83
2021/11/26 08:45:22;;;;;;;;;;;5.60;1.00;;;;;;5027286;28;19913;-83
2021/11/26 08:47:47;;;;;;;;;;;5.60;99.90;;;;;;5036841;28;19951;-83
2021/11/26 08:50:15;;;;;;;;;;;5.60;99.90;;;;;;5043197;28;19999;-81
2021/11/26 08:52:42;;;;;;;;;;;5.60;99.90;;;;;;5040121;28;19932;-83
2021/11/26 08:55:11;;;;;;;;;;;5.60;99.90;;;;;;5025826;28;19995;-81
2021/11/26 08:57:38;;;;;;;;;;;5.60;99.90;;;;;;5044554;28;20323;-81
2021/11/26 09:00:05;;;;;;;;;;;5.70;99.90;;;;;;5045029;28;19913;-83
2021/11/26 09:02:30;;;;;;;;;;;5.70;99.90;;;;;;5034471;28;19963;-83
2021/11/26 09:04:56;;;;;;;;;;;5.70;99.90;;;;;;5048097;28;19913;-82
2021/11/26 09:07:21;;;;;;;;;;;5.70;99.90;;;;;;5044678;28;19908;-83
2021/11/26 09:09:47;;;;;;;;;;;5.60;99.90;;;;;;5026416;28;19936;-82
2021/11/26 09:12:12;;;;;;;;;;;5.70;99.90;;;;;;5054939;28;19909;-83
2021/11/26 09:14:38;;;;;;;;;;;5.70;99.90;;;;;;5039159;28;20324;-83
2021/11/26 09:17:04;;;;;;;;;;;5.70;99.90;;;;;;5028228;28;19913;-83
2021/11/26 09:19:29;;;;;;;;;;;5.60;38.30;;;;;;5044929;28;19967;-83
2021/11/26 09:21:55;;;;;;;;;;;5.60;1.00;;;;;;5038104;28;19919;-83
2021/11/26 09:24:20;;;;;;;;;;;5.70;1.00;;;;;;5020285;28;19916;-81
2021/11/26 09:26:45;;;;;;;;;;;5.60;1.00;;;;;;5036106;28;19913;-83
2021/11/26 09:29:11;;;;;;;;;;;5.70;99.90;;;;;;5042272;28;19963;-83
2021/11/26 09:31:36;;;;;;;;;;;5.70;99.90;;;;;;5038745;28;20440;-85
2021/11/26 09:34:04;;;;;;;;;;;5.70;1.00;;;;;;5016531;28;19963;-82
2021/11/26 09:36:34;;;;;;;;;;;5.70;99.90;;;;;;5044679;28;20003;-81
2021/11/26 09:38:59;;;;;;;;;;;5.80;99.90;;;;;;5044067;28;19917;-83
2021/11/26 09:41:26;;;;;;;;;;;5.80;1.00;;;;;;5027177;28;19995;-81
2021/11/26 09:43:52;;;;;;;;;;;5.80;16.00;;;;;;5046044;28;20273;-84
2021/11/26 09:46:19;;;;;;;;;;;5.90;1.00;;;;;;5043920;28;19954;-81
2021/11/26 09:48:45;;;;;;;;;;;5.90;1.00;;;;;;5038417;28;19917;-82
2021/11/26 09:51:11;;;;;;;;;;;6.00;99.90;;;;;;5033593;28;20281;-83
2021/11/26 09:53:37;;;;;;;;;;;5.90;1.00;;;;;;5045087;28;19908;-84
2021/11/26 09:56:04;;;;;;;;;;;5.90;1.00;;;;;;5047128;28;20460;-83
2021/11/26 09:58:31;;;;;;;;;;;6.00;99.90;;;;;;5044640;28;20372;-83
2021/11/26 10:00:57;;;;;;;;;;;6.00;1.90;;;;;;5034644;28;20004;-84
2021/11/26 10:03:34;;;;;;;;;;;6.00;1.00;;;;;;5038725;28;19913;-82
2021/11/26 10:06:00;;;;;;;;;;;6.00;99.90;;;;;;5032886;28;20388;-80
2021/11/26 10:08:25;;;;;;;;;;;6.10;99.90;;;;;;5043685;28;20027;-81
2021/11/26 10:10:57;;;;;;;;;;;6.10;1.00;;;;;;5044124;28;20389;-80
2021/11/26 10:13:23;;;;;;;;;;;6.10;1.00;;;;;;5037992;28;19936;-81
2021/11/26 10:15:53;;;;;;;;;;;6.10;99.90;;;;;;5033282;28;20008;-81
2021/11/26 10:18:19;;;;;;;;;;;6.10;99.90;;;;;;5018365;28;19917;-81
2021/11/26 10:20:54;;;;;;;;;;;6.10;99.90;;;;;;5045977;28;19908;-82
2021/11/26 10:23:21;;;;;;;;;;;6.10;94.50;;;;;;5048976;28;19923;-81
2021/11/26 10:25:47;;;;;;;;;;;6.10;1.00;;;;;;5025974;28;19913;-82
2021/11/26 10:28:13;;;;;;;;;;;6.10;1.00;;;;;;5015079;28;19921;-81
2021/11/26 10:30:43;;;;;;;;;;;6.20;1.00;;;;;;5039345;28;19936;-82
2021/11/26 10:33:17;;;;;;;;;;;6.20;1.00;;;;;;5038281;28;20361;-82
2021/11/26 10:35:45;;;;;;;;;;;6.30;1.00;;;;;;5024550;28;20385;-84
2021/11/26 10:38:12;;;;;;;;;;;6.40;99.90;;;;;;5044512;28;19924;-84
2021/11/26 10:40:40;;;;;;;;;;;6.50;99.90;;;;;;5022883;28;19922;-83
2021/11/26 10:43:11;;;;;;;;;;;6.50;99.90;;;;;;5042182;28;19913;-81
2021/11/26 10:46:13;;;;;;;;;;;6.60;99.90;;;;;;5041501;28;19909;-83
2021/11/26 10:59:11;;;;;;;;;;;6.80;1.00;;;;;;5052067;28;19962;-84
2021/11/26 11:01:43;;;;;;;;;;;6.80;1.00;;;;;;5061397;28;20388;-85
2021/11/26 11:04:13;;;;;;;;;;;6.90;1.00;;;;;;5046636;28;19971;-85
2021/11/26 11:06:38;;;;;;;;;;;7.10;1.00;;;;;;5050491;28;19913;-85
2021/11/26 11:09:06;;;;;;;;;;;7.40;1.00;;;;;;5044355;28;19948;-85
2021/11/26 11:11:32;;;;;;;;;;;7.50;1.00;;;;;;5026591;28;19917;-86
2021/11/26 11:14:03;;;;;;;;;;;7.40;1.00;;;;;;5043561;28;19935;-86
2021/11/26 11:16:29;;;;;;;;;;;7.40;1.00;;;;;;5047823;28;20246;-85
2021/11/26 11:18:54;;;;;;;;;;;7.40;1.00;;;;;;5044777;28;19922;-85
2021/11/26 11:21:22;;;;;;;;;;;7.40;1.00;;;;;;5062521;28;19913;-86
2021/11/26 11:23:49;;;;;;;;;;;7.50;1.00;;;;;;5036649;28;19913;-86
2021/11/26 11:26:15;;;;;;;;;;;7.50;1.00;;;;;;5040851;28;19913;-86
2021/11/26 11:28:40;;;;;;;;;;;7.70;1.00;;;;;;5042816;28;19913;-87
2021/11/26 11:31:06;;;;;;;;;;;7.70;1.00;;;;;;5049020;28;20514;-85
2021/11/26 11:33:33;;;;;;;;;;;7.60;1.00;;;;;;5019828;28;19917;-85
2021/11/26 11:36:00;;;;;;;;;;;7.60;1.00;;;;;;5051594;28;19923;-85
2021/11/26 11:38:25;;;;;;;;;;;7.50;1.00;;;;;;5047390;28;19912;-85
2021/11/26 11:40:58;;;;;;;;;;;7.50;1.00;;;;;;5027890;28;19936;-85
2021/11/26 11:43:24;;;;;;;;;;;7.50;1.00;;;;;;5043183;28;19966;-84
2021/11/26 11:45:58;;;;;;;;;;;7.60;1.00;;;;;;5049323;28;19959;-85
2021/11/26 11:48:25;;;;;;;;;;;7.80;1.00;;;;;;5026593;28;20365;-85
2021/11/26 11:50:51;;;;;;;;;;;8.00;1.00;;;;;;5047782;28;19913;-85
2021/11/26 11:53:31;;;;;;;;;;;8.20;1.00;;;;;;5048710;28;20304;-85
2021/11/26 11:56:08;;;;;;;;;;;8.50;1.00;;;;;;5038754;28;20142;-85
2021/11/26 11:58:46;;;;;;;;;;;8.70;1.00;;;;;;5029341;28;19920;-85
2021/11/26 12:01:20;;;;;;;;;;;9.00;1.00;;;;;;5032144;28;20385;-85
2021/11/26 12:03:46;;;;;;;;;;;9.10;1.00;;;;;;5043933;28;20056;-85
2021/11/26 12:06:11;;;;;;;;;;;9.10;1.00;;;;;;5035651;28;19912;-85
2021/11/26 12:08:47;;;;;;;;;;;9.00;1.00;;;;;;5043266;28;20289;-85
2021/11/26 12:11:24;;;;;;;;;;;8.90;1.00;;;;;;5031085;28;20447;-85
2021/11/26 12:14:00;;;;;;;;;;;8.70;1.00;;;;;;5040692;28;19967;-84
2021/11/26 12:16:25;;;;;;;;;;;8.50;1.00;;;;;;5038635;28;19917;-85
2021/11/26 12:18:52;;;;;;;;;;;8.40;1.00;;;;;;5049088;28;19953;-86
2021/11/26 12:21:22;;;;;;;;;;;8.30;1.00;;;;;;5052950;28;19928;-86
2021/11/26 12:24:08;;;;;;;;;;;8.20;1.00;;;;;;5039637;28;20008;-83
2021/11/26 12:26:54;;;;;;;;;;;8.20;1.00;;;;;;5048294;28;20012;-84
2021/11/26 12:29:22;;;;;;;;;;;8.10;1.00;;;;;;5000685;28;19932;-84
2021/11/26 12:31:48;;;;;;;;;;;8.00;1.00;;;;;;5022970;28;19920;-84
2021/11/26 12:34:16;;;;;;;;;;;8.00;1.00;;;;;;5038551;28;19971;-85
2021/11/26 12:36:59;;;;;;;;;;;8.10;1.00;;;;;;5039517;28;19935;-85
2021/11/26 12:39:26;;;;;;;;;;;8.00;1.00;;;;;;5041486;28;19919;-84
2021/11/26 12:41:57;;;;;;;;;;;8.00;1.00;;;;;;5021232;28;19913;-85
2021/11/26 12:44:24;;;;;;;;;;;7.90;1.00;;;;;;5043682;28;19916;-85
2021/11/26 12:46:54;;;;;;;;;;;7.90;1.00;;;;;;5042377;28;19913;-85
2021/11/26 12:51:50;;;;;;;;;;;7.90;1.00;;;;;;5044766;28;20284;-86
2021/11/26 12:54:28;;;;;;;;;;;7.90;1.00;;;;;;5043316;28;19959;-85
2021/11/26 12:56:55;;;;;;;;;;;8.00;1.00;;;;;;5042347;28;19913;-85
2021/11/26 12:59:34;;;;;;;;;;;8.10;1.00;;;;;;5041490;28;19955;-84
2021/11/26 13:02:00;;;;;;;;;;;8.20;1.00;;;;;;5048462;28;20419;-86
2021/11/26 13:04:26;;;;;;;;;;;8.30;1.00;;;;;;5043275;28;20350;-86
2021/11/26 13:07:05;;;;;;;;;;;8.30;1.00;;;;;;5044990;28;19909;-85
2021/11/26 13:09:38;;;;;;;;;;;8.30;1.00;;;;;;5028237;28;19910;-86
2021/11/26 13:12:05;;;;;;;;;;;8.30;1.00;;;;;;5026709;28;20331;-85
2021/11/26 13:14:40;;;;;;;;;;;8.10;1.00;;;;;;5045419;28;19920;-86
2021/11/26 13:17:06;;;;;;;;;;;8.00;1.00;;;;;;5044378;28;19977;-85
2021/11/26 13:19:31;;;;;;;;;;;7.90;1.00;;;;;;5041164;28;19948;-85
2021/11/26 13:21:57;;;;;;;;;;;7.90;1.00;;;;;;5046505;28;19916;-85
2021/11/26 13:24:22;;;;;;;;;;;7.80;1.00;;;;;;5044760;28;19917;-85
2021/11/26 13:26:48;;;;;;;;;;;7.60;1.00;;;;;;5048172;28;19913;-86
2021/11/26 13:29:13;;;;;;;;;;;7.50;1.00;;;;;;5045964;28;19909;-85
2021/11/26 13:31:43;;;;;;;;;;;7.40;1.00;;;;;;5045727;28;19917;-85
2021/11/26 13:34:09;;;;;;;;;;;7.30;1.00;;;;;;5043674;28;19928;-85
2021/11/26 13:36:35;;;;;;;;;;;7.10;1.00;;;;;;5037937;28;19913;-85
2021/11/26 13:39:16;;;;;;;;;;;7.00;1.00;;;;;;5040439;28;19932;-86
2021/11/26 13:41:43;;;;;;;;;;;6.90;1.00;;;;;;5040830;28;19913;-86
2021/11/26 13:44:10;;;;;;;;;;;6.90;1.00;;;;;;5042617;28;19940;-86
2021/11/26 13:46:39;;;;;;;;;;;6.90;1.00;;;;;;5039001;28;19913;-85
2021/11/26 13:49:11;;;;;;;;;;;6.90;1.00;;;;;;5042831;28;19916;-86
2021/11/26 13:51:39;;;;;;;;;;;6.90;1.00;;;;;;5042888;28;19910;-85
2021/11/26 13:54:06;;;;;;;;;;;7.00;1.00;;;;;;5052073;28;19913;-85
2021/11/26 13:56:33;;;;;;;;;;;7.00;1.00;;;;;;5045981;28;19920;-86
2021/11/26 13:59:00;;;;;;;;;;;7.10;1.00;;;;;;5026734;28;19917;-86
2021/11/26 14:01:30;;;;;;;;;;;7.00;1.00;;;;;;5045119;28;20003;-85
2021/11/26 14:04:03;;;;;;;;;;;6.90;1.00;;;;;;5045084;28;19916;-85
2021/11/26 14:06:30;;;;;;;;;;;6.80;1.00;;;;;;5046197;28;19980;-85
2021/11/26 14:09:02;;;;;;;;;;;6.70;1.00;;;;;;5045886;28;19977;-85
2021/11/26 14:11:28;;;;;;;;;;;6.50;1.00;;;;;;5034044;28;19917;-85
2021/11/26 14:13:53;;;;;;;;;;;6.50;1.00;;;;;;5047448;28;19913;-85
2021/11/26 14:16:20;;;;;;;;;;;6.40;1.00;;;;;;5046341;28;19963;-85
2021/11/26 14:18:53;;;;;;;;;;;6.40;1.00;;;;;;5045830;28;19924;-85
2021/11/26 14:21:19;;;;;;;;;;;6.30;1.00;;;;;;5029600;28;19913;-87
2021/11/26 14:24:11;;;;;;;;;;;6.30;1.00;;;;;;5043980;28;20016;-86
2021/11/26 14:26:36;;;;;;;;;;;6.20;12.70;;;;;;5026703;28;19913;-85
2021/11/26 14:29:11;;;;;;;;;;;6.10;1.00;;;;;;5042622;28;19955;-85
2021/11/26 14:31:38;;;;;;;;;;;6.10;50.40;;;;;;5028098;28;20181;-85
2021/11/26 14:34:11;;;;;;;;;;;6.00;96.40;;;;;;5028263;28;19909;-87
2021/11/26 14:36:37;;;;;;;;;;;6.00;99.90;;;;;;5045174;28;20396;-85
2021/11/26 14:39:04;;;;;;;;;;;5.90;1.00;;;;;;5045162;28;19909;-85
2021/11/26 14:41:29;;;;;;;;;;;5.90;1.00;;;;;;5045716;28;19916;-85
2021/11/26 14:44:04;;;;;;;;;;;5.80;1.00;;;;;;5042726;28;19909;-84
2021/11/26 14:46:29;;;;;;;;;;;5.80;1.00;;;;;;5027561;28;19932;-85
2021/11/26 14:48:56;;;;;;;;;;;5.70;14.50;;;;;;5030084;28;19913;-85
2021/11/26 14:51:29;;;;;;;;;;;5.70;99.90;;;;;;5044263;28;19913;-86
2021/11/26 14:53:56;;;;;;;;;;;5.60;99.90;;;;;;5042251;28;19909;-85